createdAt,value
2019-02-04T00:00:37.785Z,10.53
2019-02-04T00:03:09.528Z,11.30
2019-02-04T00:05:40.200Z,12.63
2019-02-04T00:08:10.839Z,9.28
2019-02-04T00:10:41.493Z,10.80
2019-02-04T00:13:12.290Z,14.58
2019-02-04T00:15:43.003Z,14.58
2019-02-04T00:18:14.102Z,8.50
2019-02-04T00:20:44.761Z,8.63
2019-02-04T00:23:15.579Z,8.15
2019-02-04T00:25:47.200Z,11.97
2019-02-04T00:28:17.878Z,11.08
2019-02-04T00:30:48.556Z,8.05
2019-02-04T00:33:20.229Z,12.00
2019-02-04T00:35:50.965Z,12.47
2019-02-04T00:38:21.620Z,15.05
2019-02-04T00:40:53.274Z,9.28
2019-02-04T00:43:24.191Z,11.10
2019-02-04T00:45:54.934Z,11.05
2019-02-04T00:48:25.947Z,11.45
2019-02-04T00:50:57.179Z,8.60
2019-02-04T00:53:28.102Z,13.40
2019-02-04T00:55:58.947Z,12.93
2019-02-04T00:58:29.703Z,13.35
2019-02-04T01:01:00.371Z,9.35
2019-02-04T01:03:31.423Z,15.88
2019-02-04T01:06:02.064Z,16.77
2019-02-04T01:08:33.242Z,13.20
2019-02-04T01:11:04.199Z,9.83
2019-02-04T01:13:35.157Z,9.68
2019-02-04T01:16:06.251Z,14.15
2019-02-04T01:18:36.935Z,10.28
2019-02-04T01:21:07.861Z,15.17
2019-02-04T01:23:38.855Z,11.03
2019-02-04T01:26:11.210Z,15.75
2019-02-04T01:28:42.025Z,9.70
2019-02-04T01:31:12.665Z,11.88
2019-02-04T01:33:43.258Z,18.07
2019-02-04T01:36:13.919Z,10.28
2019-02-04T01:38:44.716Z,14.15
2019-02-04T01:41:15.506Z,11.55
2019-02-04T01:43:46.143Z,13.18
2019-02-04T01:46:17.043Z,11.70
2019-02-04T01:48:47.782Z,14.30
2019-02-04T01:51:18.390Z,11.95
2019-02-04T01:53:49.491Z,13.08
2019-02-04T01:56:20.413Z,13.15
2019-02-04T01:58:51.183Z,11.22
2019-02-04T02:01:21.958Z,14.20
2019-02-04T02:03:52.606Z,14.10
2019-02-04T02:06:23.796Z,9.45
2019-02-04T02:08:54.400Z,19.17
2019-02-04T02:11:25.128Z,11.73
2019-02-04T02:13:56.075Z,10.40
2019-02-04T02:16:26.814Z,12.98
2019-02-04T02:18:58.846Z,16.55
2019-02-04T02:21:29.615Z,13.00
2019-02-04T02:24:00.325Z,11.95
2019-02-04T02:26:31.066Z,11.22
2019-02-04T02:29:01.705Z,13.30
2019-02-04T02:31:32.797Z,16.80
2019-02-04T02:34:03.821Z,15.03
2019-02-04T02:36:34.482Z,14.10
2019-02-04T02:39:08.788Z,15.87
2019-02-04T02:41:39.624Z,17.80
2019-02-04T02:44:10.713Z,15.75
2019-02-04T02:46:41.609Z,13.53
2019-02-04T02:49:12.876Z,14.55
2019-02-04T02:51:43.640Z,14.00
2019-02-04T02:54:14.518Z,17.23
2019-02-04T02:56:45.308Z,15.28
2019-02-04T02:59:15.954Z,14.20
2019-02-04T03:01:46.660Z,15.13
2019-02-04T03:04:17.435Z,13.22
2019-02-04T03:06:48.091Z,14.87
2019-02-04T03:09:18.890Z,16.55
2019-02-04T03:11:49.690Z,12.78
2019-02-04T03:14:20.388Z,15.00
2019-02-04T03:16:51.179Z,17.25
2019-02-04T03:19:21.758Z,13.78
2019-02-04T03:21:52.323Z,13.18
2019-02-04T03:24:22.961Z,13.50
2019-02-04T03:26:53.582Z,16.05
2019-02-04T03:29:24.558Z,18.80
2019-02-04T03:31:56.611Z,15.23
2019-02-04T03:34:27.362Z,12.58
2019-02-04T03:36:58.335Z,14.35
2019-02-04T03:39:28.981Z,14.20
2019-02-04T03:41:59.682Z,13.80
2019-02-04T03:44:30.291Z,17.57
2019-02-04T03:47:01.838Z,13.15
2019-02-04T03:49:32.950Z,15.08
2019-02-04T03:52:19.053Z,17.65
2019-02-04T03:54:49.671Z,15.78
2019-02-04T03:57:20.411Z,21.57
2019-02-04T03:59:51.098Z,17.57
2019-02-04T04:02:22.047Z,19.15
2019-02-04T04:04:52.982Z,19.25
2019-02-04T04:07:24.012Z,19.33
2019-02-04T04:09:54.773Z,20.60
2019-02-04T04:12:25.468Z,23.85
2019-02-04T04:14:56.306Z,19.48
2019-02-04T04:17:27.023Z,22.50
2019-02-04T04:19:58.246Z,25.00
2019-02-04T04:22:29.004Z,23.42
2019-02-04T04:24:59.982Z,26.95
2019-02-04T04:27:30.752Z,30.45
2019-02-04T04:30:01.413Z,27.90
2019-02-04T04:32:32.398Z,29.57
2019-02-04T04:35:03.077Z,30.02
2019-02-04T04:37:34.289Z,32.00
2019-02-04T04:40:05.753Z,30.97
2019-02-04T04:42:36.690Z,32.65
2019-02-04T04:45:07.842Z,33.10
2019-02-04T07:17:42.532Z,54.63
2019-02-04T07:20:16.364Z,56.57
2019-02-04T07:22:47.373Z,56.67
2019-02-04T07:25:20.376Z,50.37
2019-02-04T07:27:51.664Z,56.83
2019-02-04T07:30:26.867Z,46.87
2019-02-04T07:32:57.834Z,40.40
2019-02-04T07:35:28.773Z,40.50
2019-02-04T07:37:59.620Z,41.70
2019-02-04T07:40:31.785Z,41.90
2019-02-04T07:43:02.611Z,38.90
2019-02-04T07:45:33.797Z,37.10
2019-02-04T07:48:04.518Z,36.25
2019-02-04T07:50:35.256Z,31.43
2019-02-04T08:00:35.391Z,29.43
2019-02-04T08:03:06.107Z,27.63
2019-02-04T08:05:36.776Z,26.50
2019-02-04T08:08:07.545Z,25.87
2019-02-04T08:10:38.255Z,29.03
2019-02-04T08:13:08.958Z,30.30
2019-02-04T08:15:39.629Z,29.80
2019-02-04T08:18:10.403Z,24.10
2019-02-04T08:23:10.593Z,20.70
2019-02-04T08:25:41.533Z,21.50
2019-02-04T08:28:12.225Z,19.03
2019-02-04T08:30:43.088Z,19.37
2019-02-04T08:33:14.582Z,18.77
2019-02-04T08:35:45.270Z,14.70
2019-02-04T08:38:15.919Z,20.43
2019-02-04T08:40:46.590Z,15.57
2019-02-04T08:43:17.277Z,16.83
2019-02-04T08:45:48.099Z,16.23
2019-02-04T08:48:18.791Z,15.77
2019-02-04T08:50:55.114Z,13.53
2019-02-04T08:53:26.210Z,17.27
2019-02-04T08:55:57.110Z,16.27
2019-02-04T08:58:27.953Z,19.83
2019-02-04T09:00:58.885Z,18.70
2019-02-04T09:03:29.675Z,19.70
2019-02-04T09:06:00.748Z,15.10
2019-02-04T09:08:31.726Z,26.00
2019-02-04T09:11:02.401Z,20.53
2019-02-04T09:13:33.048Z,26.80
2019-02-04T09:16:03.978Z,26.80
2019-02-04T09:18:44.451Z,26.23
2019-02-04T09:21:07.230Z,18.53
2019-02-04T09:23:37.880Z,20.97
2019-02-04T09:26:08.604Z,23.80
2019-02-04T09:31:08.825Z,18.83
2019-02-04T09:33:39.612Z,14.47
2019-02-04T09:36:10.695Z,14.10
2019-02-04T09:38:41.508Z,13.93
2019-02-04T09:41:12.223Z,16.53
2019-02-04T09:43:43.199Z,13.57
2019-02-04T09:46:13.943Z,14.33
2019-02-04T09:48:44.674Z,15.57
2019-02-04T09:51:15.334Z,17.23
2019-02-04T09:53:46.064Z,12.70
2019-02-04T09:56:16.731Z,12.60
2019-02-04T09:58:47.315Z,15.40
2019-02-04T10:01:17.995Z,16.93
2019-02-04T10:03:48.826Z,11.53
2019-02-04T10:06:19.663Z,16.87
2019-02-04T10:08:50.660Z,17.93
2019-02-04T10:11:21.328Z,11.67
2019-02-04T10:13:53.141Z,12.93
2019-02-04T10:16:23.968Z,16.10
2019-02-04T10:18:54.771Z,11.37
2019-02-04T10:21:25.740Z,11.63
2019-02-04T10:23:56.395Z,10.50
2019-02-04T10:26:27.239Z,15.27
2019-02-04T10:28:58.035Z,15.03
2019-02-04T10:31:28.917Z,11.47
2019-02-04T10:33:59.632Z,13.87
2019-02-04T10:36:30.633Z,11.20
2019-02-04T10:39:01.935Z,20.27
2019-02-04T10:41:32.883Z,11.30
2019-02-04T10:44:04.184Z,30.30
2019-02-04T10:46:34.976Z,17.83
2019-02-04T10:49:06.223Z,20.10
2019-02-04T10:51:37.614Z,14.30
2019-02-04T10:54:08.575Z,14.30
2019-02-04T11:09:09.940Z,12.67
2019-02-04T11:11:40.691Z,13.53
2019-02-04T11:14:11.950Z,14.80
2019-02-04T11:16:42.608Z,16.60
2019-02-04T11:19:13.693Z,18.40
2019-02-04T11:21:44.390Z,11.53
2019-02-04T11:24:15.365Z,19.37
2019-02-04T11:26:46.007Z,16.97
2019-02-04T11:29:18.754Z,13.07
2019-02-04T11:31:49.285Z,14.43
2019-02-04T11:34:20.059Z,15.10
2019-02-04T11:36:50.767Z,13.20
2019-02-04T11:39:21.819Z,13.70
2019-02-04T11:41:54.206Z,17.03
2019-02-04T11:44:25.229Z,14.63
2019-02-04T11:46:56.259Z,17.70
2019-02-04T11:49:27.033Z,18.27
2019-02-04T11:51:57.685Z,17.97
2019-02-04T11:54:28.279Z,19.77
2019-02-04T11:56:59.284Z,17.40
2019-02-04T11:59:29.945Z,14.70
2019-02-04T12:02:00.593Z,25.23
2019-02-04T12:04:31.263Z,14.07
2019-02-04T12:07:01.882Z,22.67
2019-02-04T12:09:32.465Z,14.67
2019-02-04T12:12:03.155Z,13.63
2019-02-04T12:14:33.726Z,17.83
2019-02-04T12:17:04.308Z,23.80
2019-02-04T12:19:35.066Z,17.13
2019-02-04T12:22:05.811Z,16.33
2019-02-04T12:24:36.526Z,16.70
2019-02-04T12:27:07.670Z,18.73
2019-02-04T12:29:38.450Z,14.50
2019-02-04T12:32:09.228Z,21.50
2019-02-04T12:34:39.825Z,17.67
2019-02-04T12:37:10.755Z,15.30
2019-02-04T12:39:41.689Z,15.53
2019-02-04T12:42:12.646Z,12.60
2019-02-04T12:44:43.232Z,15.87
2019-02-04T12:47:14.631Z,16.60
2019-02-04T12:49:45.595Z,15.57
2019-02-04T12:52:16.195Z,21.63
2019-02-04T12:54:47.067Z,12.43
2019-02-04T12:57:17.712Z,12.07
2019-02-04T12:59:48.475Z,13.63
2019-02-04T13:02:19.130Z,16.90
2019-02-04T13:04:50.000Z,17.17
2019-02-04T13:07:20.707Z,15.93
2019-02-04T13:09:51.274Z,13.90
2019-02-04T13:12:21.967Z,13.97
2019-02-04T13:14:52.572Z,16.03
2019-02-04T13:17:23.254Z,14.50
2019-02-04T13:19:53.875Z,14.60
2019-02-04T13:22:24.579Z,21.10
2019-02-04T13:24:55.214Z,22.63
2019-02-04T13:27:29.088Z,18.23
2019-02-04T13:29:59.730Z,16.00
2019-02-04T13:32:30.723Z,17.43
2019-02-04T13:35:01.351Z,15.97
2019-02-04T13:37:31.984Z,13.10
2019-02-04T13:40:02.625Z,15.90
2019-02-04T13:42:34.134Z,15.47
2019-02-04T13:45:07.966Z,16.00
2019-02-04T13:47:38.979Z,13.80
2019-02-04T13:50:09.895Z,16.63
2019-02-04T13:52:40.602Z,19.20
2019-02-04T13:55:15.091Z,15.00
2019-02-04T13:57:45.838Z,15.60
2019-02-04T14:00:17.450Z,14.73
2019-02-04T14:02:58.873Z,18.50
2019-02-04T14:05:20.859Z,15.03
2019-02-04T14:07:55.515Z,14.87
2019-02-04T14:10:29.201Z,17.23
2019-02-04T14:12:59.958Z,15.40
2019-02-04T14:15:30.731Z,18.53
2019-02-04T14:18:01.794Z,14.77
2019-02-04T14:20:32.554Z,16.43
2019-02-04T14:23:03.324Z,14.27
2019-02-04T14:25:34.203Z,14.80
2019-02-04T14:28:05.715Z,15.83
2019-02-04T14:30:38.089Z,13.97
2019-02-04T14:33:08.967Z,17.50
2019-02-04T14:35:40.071Z,21.50
2019-02-04T14:38:11.134Z,14.33
2019-02-04T14:40:41.817Z,15.20
2019-02-04T14:43:43.051Z,11.77
2019-02-04T14:47:01.621Z,12.13
2019-02-04T14:49:43.757Z,19.77
2019-02-04T14:52:51.634Z,16.50
2019-02-04T14:55:37.835Z,13.57
2019-02-04T14:58:23.219Z,16.13
2019-02-04T15:01:30.959Z,14.27
2019-02-04T15:04:23.965Z,16.33
2019-02-04T15:10:12.617Z,14.70
2019-02-04T15:13:02.744Z,12.97
2019-02-04T15:16:12.465Z,12.83
2019-02-04T15:19:32.953Z,15.70
2019-02-04T15:22:42.067Z,11.87
2019-02-04T15:25:46.590Z,12.00
2019-02-04T15:28:50.081Z,12.65
2019-02-04T15:31:48.404Z,12.00
2019-02-04T15:34:39.305Z,12.17
2019-02-04T15:37:57.295Z,12.40
2019-02-04T15:40:47.132Z,10.93
2019-02-04T15:43:46.271Z,10.73
2019-02-04T15:46:41.254Z,15.67
2019-02-04T15:49:51.891Z,12.63
2019-02-04T15:52:22.542Z,11.60
2019-02-04T15:54:53.397Z,12.20
2019-02-04T15:57:24.440Z,16.83
2019-02-04T15:59:55.111Z,12.50
2019-02-04T16:02:25.867Z,11.63
2019-02-04T16:04:56.569Z,14.70
2019-02-04T16:07:27.164Z,13.90
2019-02-04T16:09:58.083Z,12.40
2019-02-04T16:12:28.706Z,14.63
2019-02-04T16:14:59.360Z,10.60
2019-02-04T16:17:29.938Z,16.30
2019-02-04T16:20:00.598Z,14.50
2019-02-04T16:22:31.227Z,15.80
2019-02-04T16:25:01.795Z,12.83
2019-02-04T16:27:32.627Z,13.73
2019-02-04T16:30:03.350Z,13.50
2019-02-04T16:32:34.277Z,14.47
2019-02-04T16:35:06.170Z,14.57
2019-02-04T16:37:37.095Z,19.33
2019-02-04T16:40:10.228Z,13.95
2019-02-04T16:42:41.520Z,12.40
2019-02-04T16:45:12.419Z,13.20
2019-02-04T16:47:43.342Z,12.93
2019-02-04T16:50:25.242Z,10.57
2019-02-04T16:52:56.218Z,12.10
2019-02-04T16:55:26.757Z,13.77
2019-02-04T16:57:57.803Z,12.40
2019-02-04T17:00:30.820Z,12.93
2019-02-04T17:08:00.980Z,14.77
2019-02-04T17:10:31.781Z,9.07
2019-02-04T17:13:03.132Z,10.17
2019-02-04T17:15:34.358Z,10.30
2019-02-04T17:20:34.783Z,12.23
2019-02-04T17:23:05.579Z,11.07
2019-02-04T17:25:36.207Z,13.40
2019-02-04T17:28:07.978Z,15.40
2019-02-04T17:30:41.995Z,12.67
2019-02-04T17:33:12.912Z,12.03
2019-02-04T17:35:44.031Z,12.07
2019-02-04T17:38:14.932Z,10.03
2019-02-04T17:40:47.148Z,14.00
2019-02-04T17:43:18.166Z,10.63
2019-02-04T17:45:48.816Z,10.57
2019-02-04T17:48:22.602Z,13.77
2019-02-04T17:50:55.465Z,13.93
2019-02-04T18:09:29.632Z,14.73
2019-02-04T18:16:00.602Z,9.20
2019-02-04T18:16:09.728Z,10.37
2019-02-04T18:18:37.403Z,10.30
2019-02-04T18:24:06.333Z,9.30
2019-02-04T18:27:24.162Z,8.87
2019-02-04T18:30:05.621Z,10.17
2019-02-04T18:32:48.939Z,11.23
2019-02-04T18:35:24.313Z,11.53
2019-02-04T18:38:40.531Z,11.83
2019-02-04T19:06:54.212Z,14.60
2019-02-04T19:07:05.313Z,13.93
2019-02-04T19:10:10.075Z,12.13
2019-02-04T19:14:33.761Z,12.73
2019-02-04T19:16:30.426Z,11.77
2019-02-04T19:19:51.122Z,11.80
2019-02-04T19:22:48.874Z,13.40
2019-02-04T19:26:16.335Z,13.50
2019-02-04T19:49:57.781Z,10.60
2019-02-04T19:52:34.296Z,22.40
2019-02-04T19:55:30.810Z,15.30
2019-02-04T19:58:07.483Z,14.73
2019-02-04T20:00:45.484Z,10.70
2019-02-04T20:04:13.085Z,14.10
2019-02-04T20:06:50.784Z,14.23
2019-02-04T20:09:33.747Z,13.30
2019-02-04T20:12:14.410Z,14.17
2019-02-04T20:15:17.026Z,12.97
2019-02-04T20:18:47.459Z,11.87
2019-02-04T20:25:05.730Z,14.30
2019-02-04T20:27:41.724Z,10.63
2019-02-04T20:30:16.339Z,13.20
2019-02-04T20:32:55.817Z,13.73
2019-02-04T20:35:42.704Z,10.97
2019-02-04T20:38:13.291Z,12.00
2019-02-04T20:40:47.546Z,11.00
2019-02-04T20:43:21.552Z,11.20
2019-02-04T20:50:04.102Z,12.50
2019-02-04T21:07:03.665Z,16.07
2019-02-04T21:18:45.497Z,16.43
2019-02-04T21:25:26.008Z,11.30
2019-02-04T21:31:35.948Z,10.87
2019-02-04T21:49:02.873Z,9.60
2019-02-04T21:52:55.069Z,13.40
2019-02-04T21:59:54.348Z,10.83
2019-02-04T22:03:11.495Z,12.83
2019-02-04T22:07:40.443Z,10.87
2019-02-04T22:23:10.452Z,10.40
2019-02-04T22:26:50.615Z,14.57
2019-02-04T22:46:26.484Z,11.40
2019-02-04T22:54:44.117Z,10.33
2019-02-04T23:02:07.081Z,8.57
2019-02-04T23:04:39.205Z,8.73
2019-02-04T23:07:14.655Z,15.77
2019-02-04T23:09:48.152Z,14.23
2019-02-04T23:12:21.458Z,12.77
2019-02-04T23:14:57.036Z,10.07
2019-02-04T23:17:30.056Z,18.60
2019-02-04T23:20:03.232Z,10.53
2019-02-04T23:22:34.303Z,10.80
2019-02-04T23:25:05.662Z,11.60
2019-02-04T23:27:36.634Z,8.60
2019-02-04T23:32:38.170Z,7.77
2019-02-04T23:35:09.983Z,10.77
2019-02-04T23:37:41.550Z,11.43
2019-02-04T23:40:12.518Z,9.13
2019-02-04T23:42:43.226Z,11.23
2019-02-04T23:45:14.657Z,13.67
2019-02-04T23:47:46.789Z,9.20
2019-02-04T23:50:18.274Z,10.37
2019-02-04T23:52:49.074Z,7.43
2019-02-04T23:55:20.209Z,12.53
2019-02-04T23:57:50.789Z,12.00
